Hornsby, Illinois
Current Conditions -  °F | °C
As of 6:35 PM on Saturday 25 Oct 2014 (Local Time) from K3LF Reporting Station
Clear Clear  
Wind Chill: 68°   Ceiling: Unl
Heat Index: 68°   Visibility: 10mi
Dew Point: 47°   Wind: 3mph
Humidity: 48%   Direction: 290°WNW
Pressure: 30.01"   Gusts: NA
Location:  39.1865°N, 89.679°W
Report Text: K3LF 252335Z AUTO 29003KT 10SM CLR 20/09 A3001 RMK AO2 T01980085
Loading
Personal Weather Stations






























Interactive Weather Map
Tropical Storm Tracking
New forecast layout! Learn more

10-Day Weather Forecast

Advertisements
Track Severe Weather on mobile